Time;durP1;ratioP1;P1;durP2;ratioP2;P2;SDS_P1;SDS_P2;PMS_P1;PMS_P2;Temp;Humidity;BMP_temperature;BMP_pressure;BME280_temperature;BME280_humidity;BME280_pressure;Samples;Min_cycle;Max_cycle;Signal;HPM_P1;HPM_P2
2024/01/07 00:00:59;;;;;;;8.52;7.35;;;;;;;1.06;100.00;101851.84;5013700;28;20042;-75
2024/01/07 00:03:24;;;;;;;9.98;8.38;;;;;;;1.02;100.00;101849.19;5038852;28;20105;-75
2024/01/07 00:05:49;;;;;;;9.18;8.18;;;;;;;0.93;100.00;101850.81;5054430;28;20032;-75
2024/01/07 00:08:14;;;;;;;10.10;8.90;;;;;;;0.99;100.00;101859.47;5052865;28;20049;-75
2024/01/07 00:10:40;;;;;;;10.30;8.38;;;;;;;1.06;100.00;101861.31;5054190;28;20055;-75
2024/01/07 00:13:05;;;;;;;10.93;8.30;;;;;;;1.09;100.00;101866.50;5038774;28;20087;-75
2024/01/07 00:15:31;;;;;;;9.60;8.40;;;;;;;1.08;100.00;101867.34;5022529;28;20088;-75
2024/01/07 00:17:56;;;;;;;9.00;8.00;;;;;;;1.10;100.00;101869.09;5034312;28;20040;-75
2024/01/07 00:20:22;;;;;;;10.45;7.03;;;;;;;1.15;100.00;101866.59;5034418;28;20057;-75
2024/01/07 00:22:47;;;;;;;8.07;7.28;;;;;;;1.23;100.00;101871.88;5034303;28;20033;-75
2024/01/07 00:25:12;;;;;;;7.43;6.72;;;;;;;1.24;100.00;101877.06;5034179;28;20041;-75
2024/01/07 00:27:38;;;;;;;7.53;6.75;;;;;;;1.22;100.00;101875.28;5033690;28;20025;-75
2024/01/07 00:30:03;;;;;;;7.32;6.72;;;;;;;1.13;100.00;101878.63;5033988;28;20040;-75
2024/01/07 00:32:29;;;;;;;8.00;7.28;;;;;;;1.07;100.00;101878.50;5034681;28;20029;-75
2024/01/07 00:34:54;;;;;;;7.40;6.72;;;;;;;1.12;100.00;101877.72;5026683;28;20070;-75
2024/01/07 00:37:19;;;;;;;7.93;7.13;;;;;;;1.17;100.00;101880.41;5034484;28;20103;-75
2024/01/07 00:39:45;;;;;;;7.65;6.75;;;;;;;1.17;100.00;101882.97;5034168;28;20336;-75
2024/01/07 00:42:11;;;;;;;8.73;7.10;;;;;;;1.25;100.00;101894.25;5034101;28;20027;-75
2024/01/07 00:44:37;;;;;;;6.53;5.88;;;;;;;1.20;100.00;101895.94;5034598;28;20041;-75
2024/01/07 00:47:03;;;;;;;8.00;7.20;;;;;;;1.20;100.00;101889.88;5022953;28;20038;-75
2024/01/07 00:49:28;;;;;;;7.78;6.95;;;;;;;1.21;100.00;101882.16;5033520;28;20091;-75
2024/01/07 00:51:53;;;;;;;8.30;7.57;;;;;;;1.17;100.00;101882.97;5034269;28;20348;-75
2024/01/07 00:54:19;;;;;;;8.15;7.30;;;;;;;1.11;100.00;101885.44;5034070;28;20037;-75
2024/01/07 00:56:45;;;;;;;8.20;7.32;;;;;;;1.17;100.00;101885.56;5034042;28;20210;-75
2024/01/07 00:59:10;;;;;;;7.25;6.53;;;;;;;1.12;100.00;101889.78;5033701;28;20048;-75
2024/01/07 01:01:36;;;;;;;8.45;7.57;;;;;;;1.01;100.00;101886.16;5033996;28;20045;-75
2024/01/07 01:04:01;;;;;;;8.13;7.32;;;;;;;0.94;100.00;101896.38;5033773;28;20037;-75
2024/01/07 01:06:26;;;;;;;7.78;7.07;;;;;;;0.96;100.00;101896.41;5033919;28;20037;-75
2024/01/07 01:08:52;;;;;;;9.10;7.70;;;;;;;0.97;100.00;101890.41;5033391;28;20396;-75
2024/01/07 01:11:17;;;;;;;9.77;7.25;;;;;;;0.94;100.00;101887.78;5033569;28;20108;-75
2024/01/07 01:13:42;;;;;;;7.43;6.72;;;;;;;1.02;100.00;101893.03;5033790;28;20029;-75
2024/01/07 01:16:08;;;;;;;9.10;7.32;;;;;;;1.01;100.00;101892.19;5033441;28;20057;-75
2024/01/07 01:18:33;;;;;;;7.95;7.15;;;;;;;1.03;100.00;101897.38;5033928;28;20037;-75
2024/01/07 01:20:58;;;;;;;7.82;7.03;;;;;;;1.00;100.00;101900.78;5033292;28;20037;-75
2024/01/07 01:23:24;;;;;;;7.95;7.18;;;;;;;0.95;100.00;101903.28;5039582;28;20039;-75
2024/01/07 01:25:49;;;;;;;7.45;6.63;;;;;;;0.96;100.00;101904.13;5052972;28;20029;-75
2024/01/07 01:28:14;;;;;;;7.18;6.53;;;;;;;1.00;100.00;101915.38;5036045;28;20060;-75
2024/01/07 01:30:41;;;;;;;7.18;6.53;;;;;;;0.94;100.00;101905.81;5033740;28;20245;-75
2024/01/07 01:33:06;;;;;;;7.53;6.82;;;;;;;0.94;100.00;101909.28;5033147;28;20033;-75
2024/01/07 01:35:31;;;;;;;9.15;6.53;;;;;;;0.88;100.00;101913.47;5029913;28;20237;-75
2024/01/07 01:37:57;;;;;;;9.40;7.38;;;;;;;0.93;100.00;101917.00;5028483;28;20037;-75
2024/01/07 01:40:22;;;;;;;6.85;6.28;;;;;;;0.87;100.00;101911.72;5014996;28;20033;-75
2024/01/07 01:42:48;;;;;;;7.57;6.85;;;;;;;1.00;100.00;101918.84;5019497;28;20269;-75
2024/01/07 01:45:14;;;;;;;7.57;6.78;;;;;;;0.88;100.00;101927.25;5015444;28;20029;-75
2024/01/07 01:47:41;;;;;;;8.23;7.28;;;;;;;0.90;100.00;101919.53;5028293;28;20048;-75
2024/01/07 01:50:07;;;;;;;7.97;7.00;;;;;;;0.87;100.00;101930.66;5017435;28;20037;-75
2024/01/07 01:52:32;;;;;;;8.10;7.05;;;;;;;0.80;100.00;101930.53;5020420;28;20041;-75
2024/01/07 01:54:59;;;;;;;8.65;7.75;;;;;;;0.84;100.00;101937.50;5035034;28;20040;-75
2024/01/07 01:57:32;;;;;;;8.07;7.28;;;;;;;0.87;100.00;101938.38;5027322;28;20376;-75
2024/01/07 02:00:03;;;;;;;9.25;8.30;;;;;;;0.88;100.00;101936.69;5035863;28;20332;-75
2024/01/07 02:02:30;;;;;;;8.68;7.75;;;;;;;0.89;100.00;101939.31;5036327;28;20174;-75
2024/01/07 02:04:56;;;;;;;9.48;8.48;;;;;;;0.85;100.00;101932.34;5020677;28;20040;-75
2024/01/07 02:07:21;;;;;;;8.68;7.72;;;;;;;0.97;100.00;101943.72;5036145;28;20052;-75
2024/01/07 02:09:47;;;;;;;9.10;7.95;;;;;;;0.89;100.00;101941.00;5028449;28;20352;-75
2024/01/07 02:12:12;;;;;;;10.43;9.00;;;;;;;0.85;100.00;101949.53;5020757;28;20029;-75
2024/01/07 02:14:39;;;;;;;9.50;8.50;;;;;;;0.84;100.00;101946.09;5037020;28;20036;-75
2024/01/07 02:17:05;;;;;;;8.80;7.93;;;;;;;0.83;100.00;101944.34;5035835;28;20037;-75
2024/01/07 02:19:30;;;;;;;8.75;7.85;;;;;;;0.84;100.00;101953.81;5037097;28;20037;-75
2024/01/07 02:21:55;;;;;;;9.38;8.40;;;;;;;0.82;100.00;101944.31;5036129;28;20037;-75
2024/01/07 02:24:21;;;;;;;9.55;8.45;;;;;;;0.90;100.00;101953.91;5036218;28;20055;-75
2024/01/07 02:26:46;;;;;;;10.27;8.50;;;;;;;0.85;100.00;101957.25;5034884;28;20232;-75
2024/01/07 02:29:12;;;;;;;9.60;8.43;;;;;;;0.81;100.00;101961.50;5034616;28;20044;-75
2024/01/07 02:31:37;;;;;;;8.77;7.65;;;;;;;0.75;100.00;101971.72;5036233;28;20095;-75
2024/01/07 02:34:02;;;;;;;10.10;8.48;;;;;;;0.78;100.00;101961.44;5029224;28;20348;-75
2024/01/07 02:36:28;;;;;;;11.40;8.70;;;;;;;0.77;100.00;101963.16;5023492;28;20203;-75
2024/01/07 02:38:53;;;;;;;10.00;8.60;;;;;;;0.77;100.00;101967.44;5023555;28;20326;-75
2024/01/07 02:41:19;;;;;;;11.55;7.88;;;;;;;0.82;100.00;101965.81;5032020;28;20336;-75
2024/01/07 02:43:45;;;;;;;10.40;8.57;;;;;;;0.82;100.00;101970.97;5028851;28;20329;-75
2024/01/07 02:46:10;;;;;;;10.20;8.35;;;;;;;0.78;100.00;101969.16;5025419;28;20042;-75
2024/01/07 02:48:36;;;;;;;10.52;9.00;;;;;;;0.82;100.00;101977.84;5022177;28;20351;-75
2024/01/07 02:51:03;;;;;;;11.85;9.13;;;;;;;0.80;100.00;101967.50;5032728;28;20061;-75
2024/01/07 02:53:28;;;;;;;10.27;8.90;;;;;;;0.79;100.00;101982.97;5035474;28;20079;-75
2024/01/07 02:55:54;;;;;;;10.20;9.02;;;;;;;0.80;100.00;101983.00;5034488;28;20518;-75
2024/01/07 02:58:19;;;;;;;10.57;8.98;;;;;;;0.89;100.00;101983.16;5036764;28;20064;-75
2024/01/07 03:00:44;;;;;;;10.95;8.82;;;;;;;0.94;100.00;101986.66;5049915;28;20067;-75
2024/01/07 03:03:10;;;;;;;9.65;8.55;;;;;;;0.90;100.00;101984.00;5035443;28;20037;-75
2024/01/07 03:05:35;;;;;;;10.30;8.70;;;;;;;0.86;100.00;101977.94;5035595;28;20052;-75
2024/01/07 03:08:00;;;;;;;11.00;8.63;;;;;;;0.66;100.00;101989.59;5035585;28;20029;-75
2024/01/07 03:10:26;;;;;;;9.73;7.95;;;;;;;0.69;100.00;101987.06;5018884;28;20041;-72
2024/01/07 03:12:52;;;;;;;7.85;7.15;;;;;;;0.72;100.00;101989.69;5018447;28;20042;-72
2024/01/07 03:15:17;;;;;;;8.10;7.30;;;;;;;0.61;100.00;102001.53;5029707;28;20050;-72
2024/01/07 03:17:43;;;;;;;10.27;7.60;;;;;;;0.56;100.00;101996.28;5032607;28;20079;-72
2024/01/07 03:20:09;;;;;;;10.27;7.53;;;;;;;0.46;100.00;102002.09;5035324;28;20041;-72
2024/01/07 03:22:34;;;;;;;9.07;8.07;;;;;;;0.46;100.00;102002.97;5035815;28;20060;-72
2024/01/07 03:25:00;;;;;;;9.40;8.35;;;;;;;0.44;100.00;102006.34;5035258;28;20286;-71
2024/01/07 03:27:25;;;;;;;11.85;9.35;;;;;;;0.41;100.00;102009.75;5036086;28;20196;-71
2024/01/07 03:29:51;;;;;;;12.25;9.13;;;;;;;0.44;100.00;102003.75;5034251;28;20044;-72
2024/01/07 03:32:17;;;;;;;12.90;9.73;;;;;;;0.44;100.00;102016.66;5020448;28;20034;-71
2024/01/07 03:34:42;;;;;;;10.85;8.65;;;;;;;0.42;100.00;102026.06;5028424;28;20037;-72
2024/01/07 03:37:08;;;;;;;12.52;10.05;;;;;;;0.42;100.00;102019.22;5017884;28;20029;-72
2024/01/07 03:39:33;;;;;;;13.90;10.60;;;;;;;0.35;100.00;102018.22;5028920;28;20046;-72
2024/01/07 03:41:59;;;;;;;13.65;10.50;;;;;;;0.40;100.00;102022.59;5015397;28;20076;-72
2024/01/07 03:44:24;;;;;;;15.45;10.63;;;;;;;0.40;100.00;102025.16;5029352;28;20026;-71
2024/01/07 03:46:50;;;;;;;12.82;10.50;;;;;;;0.46;100.00;102023.59;5023852;28;20083;-72
2024/01/07 03:49:17;;;;;;;12.80;10.30;;;;;;;0.41;100.00;102029.50;5034517;28;20041;-72
2024/01/07 03:51:43;;;;;;;15.18;9.45;;;;;;;0.41;100.00;102021.75;5032383;28;20048;-71
2024/01/07 03:54:08;;;;;;;15.98;10.60;;;;;;;0.40;100.00;102044.09;5035271;28;20029;-72
2024/01/07 03:56:34;;;;;;;13.43;10.48;;;;;;;0.42;100.00;102038.94;5031857;28;20104;-71
2024/01/07 03:58:59;;;;;;;17.25;11.20;;;;;;;0.44;100.00;102042.41;5034944;28;20386;-71
2024/01/07 04:01:24;;;;;;;17.35;11.45;;;;;;;0.42;100.00;102047.56;5033987;28;20236;-71
2024/01/07 04:03:50;;;;;;;13.27;11.18;;;;;;;0.43;100.00;102051.00;5034812;28;20048;-72
2024/01/07 04:06:15;;;;;;;16.45;10.70;;;;;;;0.44;100.00;102056.19;5036614;28;20378;-72
2024/01/07 04:08:40;;;;;;;14.80;10.60;;;;;;;0.35;100.00;102058.59;5027808;28;20381;-72
2024/01/07 04:11:06;;;;;;;17.20;10.65;;;;;;;0.26;100.00;102068.72;5030500;28;20029;-72
2024/01/07 04:13:31;;;;;;;16.75;11.65;;;;;;;0.32;100.00;102066.25;5015373;28;20322;-71
2024/01/07 04:15:56;;;;;;;16.38;11.10;;;;;;;0.39;100.00;102060.38;5030904;28;20083;-72
2024/01/07 04:18:22;;;;;;;13.52;10.68;;;;;;;0.30;100.00;102073.94;5034959;28;20233;-72
2024/01/07 04:20:47;;;;;;;13.18;10.73;;;;;;;0.24;100.00;102073.81;5034497;28;20052;-71
2024/01/07 04:23:12;;;;;;;15.13;10.55;;;;;;;0.36;100.00;102074.09;5034328;28;20083;-71
2024/01/07 04:25:39;;;;;;;16.27;11.65;;;;;;;0.29;100.00;102076.47;5034331;28;20059;-71
2024/01/07 04:28:05;;;;;;;13.77;10.90;;;;;;;0.28;100.00;102067.03;5029755;28;20087;-71
2024/01/07 04:30:30;;;;;;;14.00;11.15;;;;;;;0.31;100.00;102070.53;5034279;28;20344;-71
2024/01/07 04:32:55;;;;;;;14.77;10.70;;;;;;;0.30;100.00;102068.78;5017620;28;20037;-72
2024/01/07 04:35:21;;;;;;;15.88;10.65;;;;;;;0.30;100.00;102076.53;5034537;28;20045;-72
2024/01/07 04:37:46;;;;;;;14.95;11.25;;;;;;;0.24;100.00;102078.09;5021042;28;20033;-72
2024/01/07 04:40:12;;;;;;;17.65;11.63;;;;;;;0.26;100.00;102074.72;5022600;28;20447;-72
2024/01/07 04:42:37;;;;;;;15.70;11.07;;;;;;;0.31;100.00;102082.53;5015101;28;20282;-71
2024/01/07 04:45:03;;;;;;;12.23;9.88;;;;;;;0.29;100.00;102084.22;5024442;28;20087;-71
2024/01/07 04:47:30;;;;;;;15.85;10.90;;;;;;;0.27;100.00;102084.16;5022620;28;20249;-72
2024/01/07 04:49:56;;;;;;;15.30;11.23;;;;;;;0.16;100.00;102095.94;5025801;28;20037;-71
2024/01/07 04:52:22;;;;;;;14.15;10.80;;;;;;;0.22;100.00;102090.06;5014754;28;20050;-72
2024/01/07 04:54:49;;;;;;;16.73;11.50;;;;;;;0.19;100.00;102090.88;5023681;28;20072;-72
2024/01/07 04:57:14;;;;;;;19.83;11.18;;;;;;;0.14;100.00;102098.50;5033685;28;20269;-72
2024/01/07 04:59:40;;;;;;;13.82;10.48;;;;;;;0.16;100.00;102102.00;5034558;28;20062;-71
2024/01/07 05:02:05;;;;;;;16.33;10.98;;;;;;;0.20;100.00;102110.66;5033168;28;20213;-71
2024/01/07 05:04:32;;;;;;;14.43;10.15;;;;;;;0.19;100.00;102108.91;5032835;28;20029;-71
2024/01/07 05:06:57;;;;;;;13.05;9.73;;;;;;;0.17;100.00;102119.19;5033371;28;20477;-72
2024/01/07 05:09:22;;;;;;;14.48;9.95;;;;;;;0.13;100.00;102112.22;5017701;28;20040;-72
2024/01/07 05:11:48;;;;;;;14.13;10.27;;;;;;;0.15;100.00;102114.84;5033223;28;20037;-71
2024/01/07 05:14:13;;;;;;;12.52;9.38;;;;;;;0.15;100.00;102128.59;5033991;28;20048;-71
2024/01/07 05:16:39;;;;;;;14.98;10.23;;;;;;;0.07;100.00;102127.53;5033306;28;20072;-72
2024/01/07 05:19:04;;;;;;;10.68;9.32;;;;;;;0.07;100.00;102130.09;5033394;28;20096;-71
2024/01/07 05:21:30;;;;;;;15.80;9.55;;;;;;;0.07;100.00;102136.97;5022254;28;20041;-71
2024/01/07 05:23:55;;;;;;;13.13;10.18;;;;;;;0.19;100.00;102130.38;5021164;28;20036;-71
2024/01/07 05:26:21;;;;;;;11.32;9.32;;;;;;;0.20;100.00;102136.44;5033395;28;20088;-72
2024/01/07 05:28:46;;;;;;;14.68;10.20;;;;;;;0.13;100.00;102143.16;5032108;28;20041;-71
2024/01/07 05:31:16;;;;;;;12.88;9.93;;;;;;;0.19;100.00;102143.28;5024505;28;20053;-72
2024/01/07 05:33:42;;;;;;;15.45;10.60;;;;;;;0.24;100.00;102139.91;5021467;28;20325;-71
2024/01/07 05:36:07;;;;;;;11.90;9.68;;;;;;;0.14;100.00;102139.72;5023184;28;20326;-72
2024/01/07 05:38:33;;;;;;;13.55;9.80;;;;;;;0.14;100.00;102142.28;5022671;28;20048;-72
2024/01/07 05:40:58;;;;;;;13.63;9.68;;;;;;;0.16;100.00;102155.22;5023711;28;20037;-71
2024/01/07 05:43:23;;;;;;;13.43;10.50;;;;;;;0.18;100.00;102166.41;5022147;28;20033;-72
2024/01/07 05:45:49;;;;;;;15.80;11.32;;;;;;;0.13;100.00;102161.19;5042457;28;20047;-72
2024/01/07 05:48:14;;;;;;;15.38;10.40;;;;;;;0.05;100.00;102169.56;5041224;28;20037;-72
2024/01/07 05:50:39;;;;;;;19.30;11.93;;;;;;;0.11;100.00;102165.44;5033376;28;20033;-72
2024/01/07 05:53:04;;;;;;;15.73;11.45;;;;;;;0.13;100.00;102166.31;5034441;28;20041;-72
2024/01/07 05:55:30;;;;;;;14.68;10.38;;;;;;;0.16;100.00;102178.41;5033336;28;20044;-72
2024/01/07 05:57:56;;;;;;;13.93;10.80;;;;;;;0.17;100.00;102173.28;5033351;28;20275;-71
2024/01/07 06:00:21;;;;;;;16.83;11.25;;;;;;;0.14;100.00;102175.78;5036724;28;20040;-72
2024/01/07 06:02:47;;;;;;;16.05;11.35;;;;;;;0.17;100.00;102183.59;5041964;28;20042;-71
2024/01/07 06:05:12;;;;;;;17.40;11.18;;;;;;;0.27;100.00;102178.66;5026093;28;20037;-71
2024/01/07 06:07:38;;;;;;;18.15;11.13;;;;;;;0.26;100.00;102177.78;5023892;28;20113;-72
2024/01/07 06:10:03;;;;;;;16.17;11.25;;;;;;;0.21;100.00;102189.69;5023244;28;20334;-71
2024/01/07 06:12:29;;;;;;;14.82;10.10;;;;;;;0.18;100.00;102198.22;5018589;28;20333;-71
2024/01/07 06:14:54;;;;;;;17.95;11.20;;;;;;;0.18;100.00;102193.06;5016843;28;20057;-71
2024/01/07 06:17:19;;;;;;;14.52;11.02;;;;;;;0.23;100.00;102207.75;5015667;28;20307;-71
2024/01/07 06:19:45;;;;;;;18.95;11.85;;;;;;;0.32;100.00;102206.28;5030877;28;20033;-71
2024/01/07 06:22:10;;;;;;;17.67;11.60;;;;;;;0.14;100.00;102208.41;5022402;28;20037;-71
2024/01/07 06:24:36;;;;;;;18.42;12.25;;;;;;;0.06;100.00;102213.38;5032709;28;20156;-71
2024/01/07 06:27:03;;;;;;;17.00;12.80;;;;;;;0.10;100.00;102204.88;5031028;28;20083;-71
2024/01/07 06:29:29;;;;;;;18.10;12.98;;;;;;;0.05;100.00;102213.34;5031873;28;20036;-71
2024/01/07 06:31:54;;;;;;;18.08;12.48;;;;;;;0.02;100.00;102221.88;5015285;28;20056;-71
2024/01/07 06:34:21;;;;;;;19.30;12.18;;;;;;;-0.02;100.00;102223.50;5015031;28;20037;-71
2024/01/07 06:36:46;;;;;;;23.92;13.60;;;;;;;0.07;100.00;102220.25;5029456;28;20044;-71
2024/01/07 06:39:12;;;;;;;23.35;12.90;;;;;;;-0.02;100.00;102222.59;5032236;28;20041;-71
2024/01/07 06:41:37;;;;;;;20.45;13.32;;;;;;;0.06;100.00;102233.13;5031932;28;20299;-71
2024/01/07 06:44:03;;;;;;;18.17;12.68;;;;;;;0.08;100.00;102236.63;5032621;28;20044;-71
2024/01/07 06:46:28;;;;;;;22.40;13.52;;;;;;;0.19;100.00;102245.47;5032491;28;20029;-71
2024/01/07 06:48:54;;;;;;;22.80;13.52;;;;;;;0.09;100.00;102246.97;5029454;28;20394;-72
2024/01/07 06:51:19;;;;;;;21.40;13.65;;;;;;;0.13;100.00;102245.34;5028453;28;20032;-71
2024/01/07 06:53:44;;;;;;;19.33;13.02;;;;;;;0.24;100.00;102250.72;5016790;28;20199;-71
2024/01/07 06:56:10;;;;;;;20.13;13.38;;;;;;;0.23;100.00;102249.84;5029548;28;20041;-71
2024/01/07 06:58:35;;;;;;;22.40;14.23;;;;;;;0.04;100.00;102247.66;5020779;28;20059;-71
2024/01/07 07:01:00;;;;;;;21.70;13.18;;;;;;;0.03;100.00;102259.66;5025276;28;20033;-71
2024/01/07 07:03:26;;;;;;;21.00;13.23;;;;;;;0.07;100.00;102260.63;5027342;28;20038;-71
2024/01/07 07:05:51;;;;;;;18.13;12.82;;;;;;;0.12;100.00;102261.59;5027651;28;20105;-72
2024/01/07 07:08:16;;;;;;;22.25;13.00;;;;;;;0.09;100.00;102272.72;5027905;28;20040;-71
2024/01/07 07:10:42;;;;;;;18.33;12.18;;;;;;;0.08;100.00;102267.53;5032038;28;20033;-71
2024/01/07 07:13:08;;;;;;;19.83;12.77;;;;;;;0.03;100.00;102280.28;5032492;28;20033;-71
2024/01/07 07:15:34;;;;;;;17.75;12.80;;;;;;;0.03;100.00;102288.00;5029931;28;20073;-71
2024/01/07 07:17:59;;;;;;;17.67;12.10;;;;;;;0.02;100.00;102283.69;5031820;28;20037;-71
2024/01/07 07:20:24;;;;;;;19.92;12.65;;;;;;;0.07;100.00;102294.09;5036192;28;20297;-72
2024/01/07 07:22:50;;;;;;;20.02;12.45;;;;;;;0.17;100.00;102290.94;5026177;28;20029;-72
2024/01/07 07:25:16;;;;;;;17.60;12.00;;;;;;;0.24;100.00;102297.09;5035458;28;20095;-71
2024/01/07 07:27:43;;;;;;;20.10;11.85;;;;;;;0.21;100.00;102303.06;5022452;28;20237;-71
2024/01/07 07:30:08;;;;;;;16.02;11.00;;;;;;;0.25;100.00;102304.00;5015997;28;20036;-71
2024/01/07 07:32:33;;;;;;;20.33;11.93;;;;;;;0.24;100.00;102303.16;5023272;28;20030;-71
2024/01/07 07:34:59;;;;;;;18.92;12.07;;;;;;;0.23;100.00;102314.28;5029849;28;20072;-71
2024/01/07 07:37:25;;;;;;;15.52;11.50;;;;;;;0.17;100.00;102314.13;5026453;28;20100;-72
2024/01/07 07:39:50;;;;;;;15.25;11.38;;;;;;;0.17;100.00;102319.28;5029768;28;20056;-71
2024/01/07 07:42:16;;;;;;;15.00;11.30;;;;;;;0.27;100.00;102318.66;5027185;28;20349;-71
2024/01/07 07:44:42;;;;;;;14.98;11.27;;;;;;;0.19;100.00;102328.78;5033634;28;20195;-71
2024/01/07 07:47:07;;;;;;;13.15;10.10;;;;;;;0.09;100.00;102333.66;5025214;28;20066;-71
2024/01/07 07:49:35;;;;;;;12.55;10.20;;;;;;;0.09;100.00;102339.69;5015673;28;20375;-71
2024/01/07 07:52:00;;;;;;;12.27;10.00;;;;;;;0.01;100.00;102343.75;5022248;28;20089;-72
2024/01/07 07:54:26;;;;;;;15.45;10.90;;;;;;;0.07;100.00;102343.91;5015473;28;20029;-71
2024/01/07 07:56:51;;;;;;;17.85;10.65;;;;;;;0.08;100.00;102349.97;5024311;28;20249;-71
2024/01/07 07:59:16;;;;;;;14.55;9.80;;;;;;;0.04;100.00;102350.69;5034047;28;20299;-72
2024/01/07 08:01:42;;;;;;;15.63;11.15;;;;;;;0.13;100.00;102358.69;5032545;28;20041;-71
2024/01/07 08:04:08;;;;;;;14.05;10.57;;;;;;;0.07;100.00;102354.22;5034228;28;20033;-71
2024/01/07 08:06:34;;;;;;;15.35;10.95;;;;;;;0.10;100.00;102358.59;5033839;28;20078;-71
2024/01/07 08:08:59;;;;;;;14.20;10.02;;;;;;;0.16;100.00;102358.75;5034132;28;20396;-72
2024/01/07 08:11:24;;;;;;;14.30;10.40;;;;;;;0.12;100.00;102362.94;5034063;28;20028;-71
2024/01/07 08:13:50;;;;;;;15.77;9.98;;;;;;;0.05;100.00;102370.47;5033762;28;20029;-71
2024/01/07 08:16:15;;;;;;;14.63;9.52;;;;;;;0.07;100.00;102369.69;5036406;28;20052;-71
2024/01/07 08:18:41;;;;;;;15.18;10.38;;;;;;;0.09;100.00;102370.63;5033346;28;20092;-72
2024/01/07 08:21:07;;;;;;;13.50;10.27;;;;;;;0.13;100.00;102372.44;5033470;28;20320;-71
2024/01/07 08:23:32;;;;;;;14.13;9.18;;;;;;;0.14;100.00;102378.44;5033256;28;20017;-71
2024/01/07 08:25:57;;;;;;;14.20;9.45;;;;;;;0.11;100.00;102381.84;5031615;28;20037;-71
2024/01/07 08:28:23;;;;;;;10.95;8.70;;;;;;;0.07;100.00;102384.28;5015433;28;20214;-71
2024/01/07 08:30:49;;;;;;;14.43;9.18;;;;;;;0.10;100.00;102397.25;5021903;28;20773;-71
2024/01/07 08:33:14;;;;;;;12.07;9.27;;;;;;;0.02;100.00;102396.13;5018220;28;20046;-71
2024/01/07 08:35:40;;;;;;;12.25;9.50;;;;;;;0.07;100.00;102398.00;5016184;28;20041;-71
2024/01/07 08:38:06;;;;;;;13.30;9.88;;;;;;;0.04;100.00;102399.63;5026800;28;20348;-71
2024/01/07 08:40:31;;;;;;;15.68;9.32;;;;;;;0.11;100.00;102410.16;5015475;28;20076;-71
2024/01/07 08:42:56;;;;;;;12.85;9.85;;;;;;;0.19;100.00;102405.22;5020682;28;20105;-71
2024/01/07 08:45:22;;;;;;;13.57;9.85;;;;;;;0.08;100.00;102410.06;5014580;28;20038;-71
2024/01/07 08:47:47;;;;;;;13.88;9.60;;;;;;;0.17;100.00;102417.19;5012861;28;20311;-71
2024/01/07 08:50:13;;;;;;;13.07;9.02;;;;;;;0.13;100.00;102403.34;5030415;28;20084;-71
2024/01/07 08:52:38;;;;;;;12.32;8.30;;;;;;;0.22;100.00;102419.88;5030737;28;20037;-71
2024/01/07 08:55:06;;;;;;;9.00;7.97;;;;;;;0.07;100.00;102423.78;5031453;28;20033;-71
2024/01/07 08:57:32;;;;;;;13.18;8.68;;;;;;;0.23;100.00;102416.47;5030724;28;20053;-71
2024/01/07 08:59:57;;;;;;;10.40;8.35;;;;;;;0.10;100.00;102425.59;5030543;28;20353;-71
2024/01/07 09:02:22;;;;;;;8.70;7.75;;;;;;;0.12;100.00;102429.94;5030340;28;20248;-71
2024/01/07 09:04:48;;;;;;;10.45;7.80;;;;;;;0.18;100.00;102424.06;5030709;28;20348;-71
2024/01/07 09:07:16;;;;;;;10.70;8.85;;;;;;;0.19;100.00;102423.25;5027372;28;20232;-71
2024/01/07 09:09:41;;;;;;;9.63;7.67;;;;;;;0.10;100.00;102433.31;5026824;28;20049;-71
2024/01/07 09:12:07;;;;;;;12.15;9.23;;;;;;;0.13;100.00;102431.69;5023578;28;20264;-71
2024/01/07 09:14:32;;;;;;;11.15;9.13;;;;;;;0.10;100.00;102425.59;5025167;28;20064;-71
2024/01/07 09:16:58;;;;;;;11.10;9.18;;;;;;;0.09;100.00;102435.03;5025045;28;20045;-71
2024/01/07 09:19:23;;;;;;;10.18;8.45;;;;;;;-0.04;100.00;102438.97;5023261;28;20033;-72
2024/01/07 09:21:49;;;;;;;12.82;9.88;;;;;;;-0.03;100.00;102447.53;5021165;28;20286;-71
2024/01/07 09:24:14;;;;;;;11.80;9.65;;;;;;;-0.10;100.00;102449.06;5018745;28;20029;-71
2024/01/07 09:26:40;;;;;;;11.07;9.10;;;;;;;-0.12;100.00;102462.72;5020668;28;20038;-72
2024/01/07 09:29:05;;;;;;;14.80;9.70;;;;;;;0.00;100.00;102465.69;5019890;28;20029;-71
2024/01/07 09:31:30;;;;;;;10.75;8.88;;;;;;;-0.09;100.00;102467.94;5021361;28;20455;-71
2024/01/07 09:33:56;;;;;;;11.02;8.90;;;;;;;-0.04;100.00;102475.03;5021463;28;20033;-71
2024/01/07 09:36:21;;;;;;;13.57;8.48;;;;;;;-0.05;100.00;102483.56;5020815;28;20029;-71
2024/01/07 09:38:46;;;;;;;10.02;8.80;;;;;;;0.02;100.00;102486.31;5022154;28;20231;-71
2024/01/07 09:41:12;;;;;;;10.65;8.32;;;;;;;-0.10;100.00;102487.69;5020649;28;20552;-71
2024/01/07 09:43:37;;;;;;;9.30;7.97;;;;;;;-0.10;100.00;102494.56;5020562;28;20325;-71
2024/01/07 09:46:03;;;;;;;12.25;8.13;;;;;;;-0.07;100.00;102497.22;5020677;28;20359;-72
2024/01/07 09:48:29;;;;;;;8.90;7.50;;;;;;;-0.21;100.00;102502.81;5019737;28;20426;-71
2024/01/07 09:50:57;;;;;;;9.75;7.63;;;;;;;-0.32;100.00;102498.19;5020087;28;20079;-71
2024/01/07 09:53:25;;;;;;;11.23;8.18;;;;;;;-0.27;100.00;102505.22;5021459;28;20045;-71
2024/01/07 09:56:29;;;;;;;11.77;7.97;;;;;;;-0.33;100.00;102514.44;5021500;28;20040;-71
2024/01/07 09:58:54;;;;;;;11.95;8.52;;;;;;;-0.36;100.00;102506.63;5019679;28;20037;-71
2024/01/07 10:01:20;;;;;;;11.05;8.82;;;;;;;-0.32;100.00;102513.63;5022660;28;20370;-71
2024/01/07 10:03:45;;;;;;;10.00;8.10;;;;;;;-0.29;100.00;102511.13;5018523;28;20533;-71
2024/01/07 10:06:11;;;;;;;10.77;8.20;;;;;;;-0.31;100.00;102513.69;5021943;28;20040;-71
2024/01/07 10:08:37;;;;;;;10.95;8.63;;;;;;;-0.34;100.00;102523.00;5021080;28;20029;-71
2024/01/07 10:11:04;;;;;;;12.65;8.23;;;;;;;-0.41;100.00;102519.38;5019919;28;20037;-71
2024/01/07 10:13:30;;;;;;;11.65;8.63;;;;;;;-0.47;100.00;102520.03;5021189;28;20213;-71
2024/01/07 10:15:56;;;;;;;10.45;7.97;;;;;;;-0.39;100.00;102523.72;5025069;28;20241;-71
2024/01/07 10:18:21;;;;;;;10.70;7.88;;;;;;;-0.32;100.00;102531.66;5025141;28;20038;-71
2024/01/07 10:20:47;;;;;;;11.02;8.30;;;;;;;-0.29;100.00;102527.47;5023750;28;20041;-71
2024/01/07 10:23:12;;;;;;;13.52;7.95;;;;;;;-0.31;100.00;102526.56;5022654;28;20393;-71
2024/01/07 10:25:37;;;;;;;12.95;7.78;;;;;;;-0.30;100.00;102528.28;5023150;28;20328;-71
2024/01/07 10:28:03;;;;;;;11.30;8.13;;;;;;;-0.39;100.00;102536.59;5023593;28;20091;-72
2024/01/07 10:30:31;;;;;;;10.13;7.40;;;;;;;-0.31;100.00;102533.38;5024896;28;20149;-72
2024/01/07 10:32:58;;;;;;;10.57;7.82;;;;;;;-0.28;100.00;102542.09;5024823;28;20266;-72
2024/01/07 10:35:33;;;;;;;7.72;6.85;;;;;;;-0.20;100.00;102538.06;5024647;28;20097;-72
2024/01/07 10:37:59;;;;;;;10.38;7.22;;;;;;;-0.15;99.95;102538.19;5022025;28;20036;-72
2024/01/07 10:40:27;;;;;;;8.90;6.97;;;;;;;-0.14;99.76;102544.22;5024849;28;20030;-72
2024/01/07 10:42:54;;;;;;;8.45;7.18;;;;;;;-0.08;99.86;102534.97;5021437;28;20044;-72
2024/01/07 10:45:20;;;;;;;9.07;7.40;;;;;;;-0.08;99.87;102547.84;5023534;28;20042;-72
2024/01/07 10:47:52;;;;;;;9.25;7.05;;;;;;;0.06;99.82;102550.00;5031473;28;20034;-72
2024/01/07 10:50:18;;;;;;;9.63;7.18;;;;;;;-0.01;99.24;102551.50;5027261;28;20045;-72
2024/01/07 10:52:49;;;;;;;8.50;6.82;;;;;;;-0.12;98.24;102552.88;5025892;28;20072;-72
2024/01/07 10:55:17;;;;;;;7.25;6.50;;;;;;;-0.12;98.46;102556.31;5023712;28;20053;-72
2024/01/07 10:57:44;;;;;;;9.20;6.18;;;;;;;-0.13;98.95;102553.69;5021011;28;20475;-72
2024/01/07 11:00:20;;;;;;;7.60;6.35;;;;;;;-0.14;98.53;102552.81;5017843;28;20027;-72
2024/01/07 11:03:10;;;;;;;6.90;6.10;;;;;;;-0.10;98.15;102558.94;5032215;28;20332;-72
2024/01/07 11:05:54;;;;;;;7.20;5.47;;;;;;;-0.03;98.11;102554.03;5032599;28;20033;-72
2024/01/07 11:08:26;;;;;;;7.93;5.78;;;;;;;-0.05;98.18;102549.66;5037150;28;20033;-72
2024/01/07 11:11:12;;;;;;;7.15;5.35;;;;;;;-0.12;97.32;102555.44;5032247;28;20052;-72